RAM794 GMMN-LFMT
Flight info
| Callsign | RAM794 |
|---|---|
| Flight time | 2h 1m |
| Altitude | 34000 |
| Route | TOLSI UG5 ROMSO UM985 BARPA M985 VLC DCT SOPET DCT DIKUT DCT TORDU DCT LOTOS DCT EBROX DCT PEXOT DCT DOTIS DCT SOTIL DCT BGR DCT MARRI |
| Aircraft | B738/M-SDE2E3FGHIRWXY/LB1 |
Departure
| Time | 2026-04-24 21:16 |
|---|---|
| Airport | Mohammed V International Airport (GMMN) |
Arrival
| Time | 2026-04-24 23:18 |
|---|---|
| Airport | Montpellier-Méditerranée Airport (LFMT) |
| Time | Latitude | Longitude | Altitude | Speed | Heading |
|---|---|---|---|---|---|
| 2026-04-24 20:32 | 33.37269 | -7.58238 | 652 ft | 0 kts | 75° |
| 2026-04-24 20:50 | 33.37268 | -7.58238 | 625 ft | 0 kts | 75° |
| 2026-04-24 20:52 | 33.37267 | -7.58243 | 652 ft | 2 kts | 75° |
| 2026-04-24 20:52 | 33.37263 | -7.58266 | 652 ft | 3 kts | 81° |
| 2026-04-24 20:52 | 33.37261 | -7.58289 | 652 ft | 3 kts | 91° |
| 2026-04-24 20:52 | 33.37264 | -7.58312 | 652 ft | 3 kts | 116° |
| 2026-04-24 20:53 | 33.37273 | -7.58326 | 652 ft | 2 kts | 160° |
| 2026-04-24 20:53 | 33.37276 | -7.58328 | 652 ft | 1 kts | 164° |
| 2026-04-24 21:10 | 33.37269 | -7.58326 | 656 ft | 2 kts | 166° |
| 2026-04-24 21:10 | 33.37234 | -7.58315 | 652 ft | 9 kts | 166° |
| 2026-04-24 21:11 | 33.37156 | -7.58290 | 652 ft | 13 kts | 161° |
| 2026-04-24 21:11 | 33.37071 | -7.58258 | 652 ft | 13 kts | 163° |
| 2026-04-24 21:11 | 33.36979 | -7.58233 | 652 ft | 14 kts | 180° |
| 2026-04-24 21:11 | 33.36927 | -7.58309 | 652 ft | 13 kts | 259° |
| 2026-04-24 21:12 | 33.36904 | -7.58411 | 652 ft | 13 kts | 255° |
| 2026-04-24 21:12 | 33.36840 | -7.58458 | 652 ft | 13 kts | 168° |
| 2026-04-24 21:12 | 33.36738 | -7.58425 | 652 ft | 18 kts | 164° |
| 2026-04-24 21:12 | 33.36597 | -7.58376 | 652 ft | 24 kts | 164° |
| 2026-04-24 21:13 | 33.36427 | -7.58319 | 653 ft | 25 kts | 164° |
| 2026-04-24 21:13 | 33.36263 | -7.58262 | 651 ft | 24 kts | 164° |
| 2026-04-24 21:13 | 33.36108 | -7.58209 | 651 ft | 23 kts | 163° |
| 2026-04-24 21:13 | 33.35945 | -7.58148 | 651 ft | 26 kts | 165° |
| 2026-04-24 21:14 | 33.35778 | -7.58095 | 651 ft | 24 kts | 164° |
| 2026-04-24 21:14 | 33.35621 | -7.58043 | 651 ft | 23 kts | 166° |
| 2026-04-24 21:14 | 33.35474 | -7.57990 | 653 ft | 22 kts | 164° |
| 2026-04-24 21:14 | 33.35326 | -7.57946 | 652 ft | 21 kts | 180° |
| 2026-04-24 21:15 | 33.35247 | -7.58034 | 652 ft | 14 kts | 252° |
| 2026-04-24 21:15 | 33.35220 | -7.58147 | 652 ft | 14 kts | 253° |
| 2026-04-24 21:15 | 33.35208 | -7.58246 | 653 ft | 6 kts | 291° |
| 2026-04-24 21:15 | 33.35250 | -7.58275 | 655 ft | 11 kts | 344° |
| 2026-04-24 21:16 | 33.35484 | -7.58352 | 646 ft | 69 kts | 344° |
| 2026-04-24 21:16 | 33.36165 | -7.58586 | 645 ft | 132 kts | 344° |
| 2026-04-24 21:16 | 33.37196 | -7.58943 | 846 ft | 166 kts | 345° |
| 2026-04-24 21:16 | 33.38301 | -7.59329 | 1645 ft | 166 kts | 346° |
| 2026-04-24 21:17 | 33.39401 | -7.59695 | 2432 ft | 166 kts | 347° |
| 2026-04-24 21:17 | 33.40541 | -7.59961 | 3149 ft | 168 kts | 358° |
| 2026-04-24 21:17 | 33.41718 | -7.59872 | 3838 ft | 172 kts | 10° |
| 2026-04-24 21:17 | 33.42956 | -7.59471 | 4180 ft | 199 kts | 20° |
| 2026-04-24 21:18 | 33.44283 | -7.58725 | 4369 ft | 223 kts | 30° |
| 2026-04-24 21:18 | 33.45664 | -7.57696 | 4619 ft | 243 kts | 26° |
| 2026-04-24 21:18 | 33.47248 | -7.56868 | 5062 ft | 257 kts | 21° |
| 2026-04-24 21:18 | 33.48981 | -7.56067 | 5539 ft | 272 kts | 21° |
| 2026-04-24 21:19 | 33.50759 | -7.55255 | 6366 ft | 273 kts | 21° |
| 2026-04-24 21:19 | 33.52534 | -7.54435 | 7231 ft | 273 kts | 21° |
| 2026-04-24 21:19 | 33.54285 | -7.53616 | 8021 ft | 274 kts | 21° |
| 2026-04-24 21:19 | 33.56090 | -7.52761 | 8812 ft | 277 kts | 21° |
| 2026-04-24 21:20 | 33.59682 | -7.51041 | 10319 ft | 283 kts | 21° |
| 2026-04-24 21:20 | 33.61570 | -7.50130 | 10614 ft | 304 kts | 21° |
| 2026-04-24 21:20 | 33.63607 | -7.49145 | 10790 ft | 326 kts | 21° |
| 2026-04-24 21:21 | 33.65775 | -7.48091 | 11106 ft | 342 kts | 21° |
| 2026-04-24 21:21 | 33.68007 | -7.47004 | 11673 ft | 349 kts | 21° |
| 2026-04-24 21:21 | 33.70264 | -7.45903 | 12355 ft | 351 kts | 21° |
| 2026-04-24 21:21 | 33.72537 | -7.44792 | 13054 ft | 354 kts | 21° |
| 2026-04-24 21:22 | 33.74835 | -7.43668 | 13701 ft | 359 kts | 21° |
| 2026-04-24 21:22 | 33.77137 | -7.42541 | 14314 ft | 362 kts | 21° |
| 2026-04-24 21:22 | 33.79512 | -7.41377 | 14951 ft | 365 kts | 21° |
| 2026-04-24 21:22 | 33.81844 | -7.40234 | 15577 ft | 368 kts | 21° |
| 2026-04-24 21:23 | 33.84219 | -7.39070 | 16193 ft | 371 kts | 21° |
| 2026-04-24 21:23 | 33.86622 | -7.37891 | 16795 ft | 374 kts | 21° |
| 2026-04-24 21:23 | 33.89038 | -7.36705 | 17406 ft | 377 kts | 21° |
| 2026-04-24 21:23 | 33.91479 | -7.35505 | 18005 ft | 380 kts | 21° |
| 2026-04-24 21:24 | 33.93936 | -7.34297 | 18590 ft | 383 kts | 21° |
| 2026-04-24 21:24 | 33.96409 | -7.33081 | 19119 ft | 385 kts | 21° |
| 2026-04-24 21:24 | 33.98891 | -7.31859 | 19674 ft | 386 kts | 20° |
| 2026-04-24 21:24 | 34.01389 | -7.30629 | 20218 ft | 388 kts | 20° |
| 2026-04-24 21:25 | 34.03897 | -7.29393 | 20740 ft | 390 kts | 20° |
| 2026-04-24 21:25 | 34.06384 | -7.28167 | 21253 ft | 392 kts | 20° |
| 2026-04-24 21:25 | 34.08920 | -7.26916 | 21752 ft | 394 kts | 19° |
| 2026-04-24 21:25 | 34.11466 | -7.25659 | 22239 ft | 397 kts | 19° |
| 2026-04-24 21:26 | 34.14033 | -7.24390 | 22727 ft | 399 kts | 19° |
| 2026-04-24 21:26 | 34.16611 | -7.23116 | 23196 ft | 401 kts | 19° |
| 2026-04-24 21:26 | 34.19202 | -7.21834 | 23665 ft | 404 kts | 19° |
| 2026-04-24 21:26 | 34.21816 | -7.20540 | 24050 ft | 406 kts | 19° |
| 2026-04-24 21:27 | 34.24436 | -7.19241 | 24434 ft | 408 kts | 19° |
| 2026-04-24 21:27 | 34.27065 | -7.17938 | 24821 ft | 409 kts | 19° |
| 2026-04-24 21:27 | 34.29705 | -7.16628 | 25207 ft | 411 kts | 18° |
| 2026-04-24 21:27 | 34.32318 | -7.15330 | 25574 ft | 412 kts | 18° |
| 2026-04-24 21:28 | 34.34980 | -7.14008 | 25939 ft | 414 kts | 18° |
| 2026-04-24 21:28 | 34.37653 | -7.12679 | 26309 ft | 415 kts | 18° |
| 2026-04-24 21:28 | 34.40334 | -7.11345 | 26657 ft | 417 kts | 18° |
| 2026-04-24 21:28 | 34.43021 | -7.10007 | 27001 ft | 418 kts | 18° |
| 2026-04-24 21:29 | 34.45719 | -7.08662 | 27337 ft | 420 kts | 18° |
| 2026-04-24 21:29 | 34.48340 | -7.07019 | 27654 ft | 429 kts | 27° |
| 2026-04-24 21:29 | 34.50709 | -7.04829 | 28394 ft | 425 kts | 36° |
| 2026-04-24 21:29 | 34.52776 | -7.02290 | 29235 ft | 420 kts | 39° |
| 2026-04-24 21:30 | 34.54782 | -6.99712 | 29613 ft | 421 kts | 39° |
| 2026-04-24 21:30 | 34.56798 | -6.97107 | 29805 ft | 426 kts | 39° |
| 2026-04-24 21:30 | 34.58841 | -6.94472 | 30022 ft | 430 kts | 39° |
| 2026-04-24 21:30 | 34.60899 | -6.91822 | 30361 ft | 430 kts | 39° |
| 2026-04-24 21:31 | 34.62949 | -6.89188 | 30753 ft | 428 kts | 39° |
| 2026-04-24 21:31 | 34.64988 | -6.86572 | 31094 ft | 427 kts | 40° |
| 2026-04-24 21:31 | 34.67011 | -6.83983 | 31362 ft | 428 kts | 40° |
| 2026-04-24 21:31 | 34.69061 | -6.81362 | 31642 ft | 428 kts | 40° |
| 2026-04-24 21:32 | 34.71114 | -6.78735 | 31951 ft | 428 kts | 40° |
| 2026-04-24 21:32 | 34.73161 | -6.76115 | 32281 ft | 427 kts | 40° |
| 2026-04-24 21:32 | 34.75206 | -6.73495 | 32581 ft | 427 kts | 40° |
| 2026-04-24 21:32 | 34.77252 | -6.70873 | 32862 ft | 427 kts | 40° |
| 2026-04-24 21:33 | 34.79298 | -6.68248 | 33159 ft | 427 kts | 40° |
| 2026-04-24 21:33 | 34.80651 | -6.66511 | 33359 ft | 426 kts | 40° |
| 2026-04-24 21:33 | 34.83378 | -6.63006 | 33743 ft | 426 kts | 40° |
| 2026-04-24 21:33 | 34.85414 | -6.60389 | 34022 ft | 426 kts | 40° |
| 2026-04-24 21:34 | 34.87452 | -6.57767 | 34089 ft | 429 kts | 40° |
| 2026-04-24 21:34 | 34.91605 | -6.52423 | 34102 ft | 438 kts | 41° |
| 2026-04-24 21:35 | 34.95807 | -6.47004 | 34108 ft | 446 kts | 41° |
| 2026-04-24 21:35 | 35.00094 | -6.41459 | 34096 ft | 451 kts | 41° |
| 2026-04-24 21:36 | 35.04404 | -6.35873 | 34089 ft | 453 kts | 42° |
| 2026-04-24 21:36 | 35.08726 | -6.30265 | 34087 ft | 453 kts | 42° |
| 2026-04-24 21:37 | 35.13045 | -6.24652 | 34085 ft | 453 kts | 43° |
| 2026-04-24 21:37 | 35.17357 | -6.19040 | 34085 ft | 452 kts | 43° |
| 2026-04-24 21:38 | 35.21625 | -6.13477 | 34091 ft | 451 kts | 44° |
| 2026-04-24 21:38 | 35.25908 | -6.07885 | 34078 ft | 449 kts | 44° |
| 2026-04-24 21:39 | 35.30178 | -6.02301 | 34082 ft | 448 kts | 44° |
| 2026-04-24 21:39 | 35.34432 | -5.96730 | 34088 ft | 447 kts | 44° |
| 2026-04-24 21:40 | 35.38673 | -5.91165 | 34090 ft | 446 kts | 45° |
| 2026-04-24 21:40 | 35.42907 | -5.85600 | 34095 ft | 446 kts | 45° |
| 2026-04-24 21:41 | 35.47132 | -5.80038 | 34103 ft | 446 kts | 45° |
| 2026-04-24 21:41 | 35.51361 | -5.74462 | 34100 ft | 446 kts | 45° |
| 2026-04-24 21:42 | 35.55590 | -5.68877 | 34096 ft | 446 kts | 46° |
| 2026-04-24 21:42 | 35.59791 | -5.63318 | 34104 ft | 447 kts | 46° |
| 2026-04-24 21:43 | 35.64048 | -5.57677 | 34098 ft | 447 kts | 46° |
| 2026-04-24 21:43 | 35.68248 | -5.52101 | 34105 ft | 447 kts | 46° |
| 2026-04-24 21:44 | 35.72483 | -5.46470 | 34097 ft | 448 kts | 46° |
| 2026-04-24 21:44 | 35.76709 | -5.40841 | 34125 ft | 448 kts | 46° |
| 2026-04-24 21:45 | 35.80564 | -5.35698 | 34131 ft | 447 kts | 46° |
| 2026-04-24 21:45 | 35.84735 | -5.30014 | 34125 ft | 447 kts | 47° |
| 2026-04-24 21:46 | 35.88873 | -5.24256 | 34242 ft | 451 kts | 48° |
| 2026-04-24 21:46 | 35.90949 | -5.21356 | 34460 ft | 450 kts | 48° |
| 2026-04-24 21:46 | 35.92994 | -5.18497 | 34711 ft | 449 kts | 48° |
| 2026-04-24 21:46 | 35.95084 | -5.15570 | 34890 ft | 449 kts | 48° |
| 2026-04-24 21:47 | 35.97128 | -5.12705 | 35044 ft | 450 kts | 48° |
| 2026-04-24 21:47 | 35.98525 | -5.10746 | 35160 ft | 450 kts | 48° |
| 2026-04-24 21:47 | 36.01271 | -5.06890 | 35434 ft | 450 kts | 48° |
| 2026-04-24 21:47 | 36.03330 | -5.03992 | 35613 ft | 450 kts | 48° |
| 2026-04-24 21:48 | 36.05398 | -5.01080 | 35771 ft | 450 kts | 48° |
| 2026-04-24 21:48 | 36.07463 | -4.98169 | 35947 ft | 450 kts | 48° |
| 2026-04-24 21:48 | 36.09530 | -4.95254 | 36105 ft | 450 kts | 48° |
| 2026-04-24 21:49 | 36.13677 | -4.89406 | 36134 ft | 453 kts | 48° |
| 2026-04-24 21:49 | 36.17828 | -4.83565 | 36131 ft | 450 kts | 48° |
| 2026-04-24 21:50 | 36.21960 | -4.77768 | 36129 ft | 447 kts | 48° |
| 2026-04-24 21:50 | 36.26076 | -4.72018 | 36124 ft | 445 kts | 48° |
| 2026-04-24 21:51 | 36.29933 | -4.66119 | 36101 ft | 443 kts | 65° |
| 2026-04-24 21:51 | 36.31850 | -4.58907 | 36153 ft | 441 kts | 77° |
| 2026-04-24 21:52 | 36.33117 | -4.51443 | 36136 ft | 442 kts | 78° |
| 2026-04-24 21:52 | 36.34172 | -4.45225 | 36125 ft | 444 kts | 78° |
| 2026-04-24 21:53 | 36.35502 | -4.37721 | 36118 ft | 446 kts | 77° |
| 2026-04-24 21:53 | 36.36850 | -4.30192 | 36129 ft | 448 kts | 78° |
| 2026-04-24 21:54 | 36.38779 | -4.22880 | 36123 ft | 449 kts | 57° |
| 2026-04-24 21:54 | 36.40788 | -4.19920 | 36104 ft | 452 kts | 40° |
| 2026-04-24 21:54 | 36.43357 | -4.17667 | 36150 ft | 454 kts | 33° |
| 2026-04-24 21:55 | 36.48771 | -4.13529 | 36111 ft | 459 kts | 32° |
| 2026-04-24 21:55 | 36.54153 | -4.09214 | 36114 ft | 462 kts | 36° |
| 2026-04-24 21:56 | 36.59269 | -4.04471 | 36111 ft | 459 kts | 38° |
| 2026-04-24 21:56 | 36.64289 | -3.99685 | 36116 ft | 452 kts | 38° |
| 2026-04-24 21:57 | 36.69299 | -3.94963 | 36126 ft | 451 kts | 38° |
| 2026-04-24 21:57 | 36.74325 | -3.90268 | 36128 ft | 452 kts | 38° |
| 2026-04-24 21:58 | 36.79369 | -3.85565 | 36126 ft | 453 kts | 38° |
| 2026-04-24 21:58 | 36.84417 | -3.80851 | 36132 ft | 454 kts | 38° |
| 2026-04-24 21:59 | 36.89488 | -3.76107 | 36139 ft | 455 kts | 38° |
| 2026-04-24 21:59 | 36.94566 | -3.71347 | 36136 ft | 457 kts | 38° |
| 2026-04-24 22:00 | 36.99609 | -3.66496 | 36138 ft | 458 kts | 43° |
| 2026-04-24 22:00 | 37.04221 | -3.61000 | 36137 ft | 458 kts | 46° |
| 2026-04-24 22:01 | 37.08733 | -3.55345 | 36145 ft | 459 kts | 46° |
| 2026-04-24 22:01 | 37.13247 | -3.49738 | 36149 ft | 460 kts | 46° |
| 2026-04-24 22:02 | 37.17825 | -3.44117 | 36148 ft | 460 kts | 46° |
| 2026-04-24 22:02 | 37.22417 | -3.38498 | 36140 ft | 461 kts | 46° |
| 2026-04-24 22:03 | 37.27003 | -3.32881 | 36128 ft | 460 kts | 46° |
| 2026-04-24 22:03 | 37.31582 | -3.27260 | 36129 ft | 460 kts | 46° |
| 2026-04-24 22:04 | 37.36156 | -3.21632 | 36129 ft | 460 kts | 46° |
| 2026-04-24 22:04 | 37.40688 | -3.16046 | 36129 ft | 459 kts | 46° |
| 2026-04-24 22:05 | 37.45247 | -3.10415 | 36122 ft | 459 kts | 46° |
| 2026-04-24 22:05 | 37.49797 | -3.04786 | 36123 ft | 458 kts | 46° |
| 2026-04-24 22:06 | 37.54342 | -2.99154 | 36125 ft | 458 kts | 46° |
| 2026-04-24 22:06 | 37.58882 | -2.93516 | 36127 ft | 458 kts | 46° |
| 2026-04-24 22:07 | 37.63425 | -2.87863 | 36134 ft | 458 kts | 47° |
| 2026-04-24 22:07 | 37.67488 | -2.81700 | 36137 ft | 456 kts | 55° |
| 2026-04-24 22:08 | 37.71308 | -2.75293 | 36134 ft | 457 kts | 55° |
| 2026-04-24 22:08 | 37.75105 | -2.68855 | 36129 ft | 457 kts | 56° |
| 2026-04-24 22:09 | 37.78899 | -2.62392 | 36137 ft | 458 kts | 56° |
| 2026-04-24 22:09 | 37.82693 | -2.55918 | 36133 ft | 459 kts | 56° |
| 2026-04-24 22:10 | 37.86496 | -2.49420 | 36138 ft | 460 kts | 56° |
| 2026-04-24 22:10 | 37.90397 | -2.42997 | 36130 ft | 462 kts | 48° |
| 2026-04-24 22:11 | 37.94995 | -2.37363 | 36144 ft | 464 kts | 45° |
| 2026-04-24 22:11 | 37.99736 | -2.31809 | 36143 ft | 464 kts | 45° |
| 2026-04-24 22:12 | 38.04451 | -2.26192 | 36154 ft | 464 kts | 45° |
| 2026-04-24 22:12 | 38.09123 | -2.20533 | 36146 ft | 465 kts | 46° |
| 2026-04-24 22:13 | 38.13786 | -2.14845 | 36152 ft | 464 kts | 46° |
| 2026-04-24 22:13 | 38.18443 | -2.09151 | 36150 ft | 464 kts | 46° |
| 2026-04-24 22:14 | 38.23090 | -2.03463 | 36164 ft | 463 kts | 46° |
| 2026-04-24 22:14 | 38.27731 | -1.97773 | 36152 ft | 463 kts | 46° |
| 2026-04-24 22:15 | 38.32332 | -1.92123 | 36163 ft | 462 kts | 46° |
| 2026-04-24 22:15 | 38.36951 | -1.86438 | 36159 ft | 462 kts | 46° |
| 2026-04-24 22:16 | 38.41566 | -1.80750 | 36161 ft | 462 kts | 46° |
| 2026-04-24 22:16 | 38.46182 | -1.75048 | 36158 ft | 462 kts | 46° |
| 2026-04-24 22:17 | 38.50799 | -1.69335 | 36164 ft | 462 kts | 46° |
| 2026-04-24 22:17 | 38.55410 | -1.63617 | 36152 ft | 462 kts | 46° |
| 2026-04-24 22:18 | 38.60022 | -1.57889 | 36156 ft | 463 kts | 46° |
| 2026-04-24 22:18 | 38.64642 | -1.52139 | 36150 ft | 463 kts | 46° |
| 2026-04-24 22:19 | 38.69260 | -1.46381 | 36150 ft | 464 kts | 46° |
| 2026-04-24 22:19 | 38.73853 | -1.40643 | 36145 ft | 464 kts | 46° |
| 2026-04-24 22:20 | 38.78478 | -1.34855 | 36147 ft | 465 kts | 46° |
| 2026-04-24 22:20 | 38.83097 | -1.29063 | 36149 ft | 465 kts | 46° |
| 2026-04-24 22:21 | 38.87726 | -1.23248 | 36149 ft | 465 kts | 46° |
| 2026-04-24 22:21 | 38.92354 | -1.17421 | 36144 ft | 466 kts | 46° |
| 2026-04-24 22:22 | 38.96986 | -1.11579 | 36149 ft | 466 kts | 46° |
| 2026-04-24 22:22 | 39.01580 | -1.05774 | 36143 ft | 466 kts | 46° |
| 2026-04-24 22:23 | 39.06204 | -0.99919 | 36151 ft | 466 kts | 46° |
| 2026-04-24 22:23 | 39.10821 | -0.94062 | 36147 ft | 466 kts | 46° |
| 2026-04-24 22:24 | 39.15430 | -0.88204 | 36144 ft | 465 kts | 46° |
| 2026-04-24 22:24 | 39.20035 | -0.82339 | 36154 ft | 465 kts | 46° |
| 2026-04-24 22:25 | 39.24631 | -0.76474 | 36141 ft | 465 kts | 46° |
| 2026-04-24 22:25 | 39.29218 | -0.70609 | 36146 ft | 464 kts | 46° |
| 2026-04-24 22:26 | 39.33807 | -0.64730 | 36149 ft | 464 kts | 46° |
| 2026-04-24 22:26 | 39.38383 | -0.58857 | 36152 ft | 463 kts | 46° |
| 2026-04-24 22:27 | 39.42928 | -0.53012 | 36152 ft | 463 kts | 46° |
| 2026-04-24 22:27 | 39.47495 | -0.47126 | 36161 ft | 463 kts | 46° |
| 2026-04-24 22:28 | 39.52053 | -0.41242 | 36160 ft | 462 kts | 46° |
| 2026-04-24 22:28 | 39.56605 | -0.35354 | 36151 ft | 462 kts | 46° |
| 2026-04-24 22:29 | 39.63420 | -0.26516 | 36157 ft | 462 kts | 46° |
| 2026-04-24 22:29 | 39.67957 | -0.20617 | 36147 ft | 461 kts | 46° |
| 2026-04-24 22:30 | 39.72464 | -0.14745 | 36139 ft | 461 kts | 46° |
| 2026-04-24 22:30 | 39.76994 | -0.08832 | 36146 ft | 461 kts | 46° |
| 2026-04-24 22:31 | 39.81523 | -0.02909 | 36134 ft | 461 kts | 46° |
| 2026-04-24 22:31 | 39.86000 | 0.03063 | 36133 ft | 461 kts | 47° |
| 2026-04-24 22:32 | 39.90370 | 0.09181 | 36138 ft | 461 kts | 47° |
| 2026-04-24 22:32 | 39.94738 | 0.15301 | 36143 ft | 461 kts | 47° |
| 2026-04-24 22:33 | 39.99095 | 0.21376 | 36143 ft | 461 kts | 47° |
| 2026-04-24 22:33 | 40.03484 | 0.27501 | 36145 ft | 462 kts | 47° |
| 2026-04-24 22:34 | 40.07874 | 0.33637 | 36142 ft | 462 kts | 47° |
| 2026-04-24 22:34 | 40.12256 | 0.39775 | 36142 ft | 462 kts | 47° |
| 2026-04-24 22:35 | 40.16609 | 0.45885 | 36139 ft | 462 kts | 47° |
| 2026-04-24 22:35 | 40.20986 | 0.52042 | 36140 ft | 462 kts | 47° |
| 2026-04-24 22:36 | 40.25357 | 0.58201 | 36134 ft | 461 kts | 47° |
| 2026-04-24 22:36 | 40.29719 | 0.64363 | 36132 ft | 461 kts | 47° |
| 2026-04-24 22:37 | 40.34069 | 0.70521 | 36131 ft | 460 kts | 47° |
| 2026-04-24 22:37 | 40.38410 | 0.76681 | 36134 ft | 459 kts | 46° |
| 2026-04-24 22:38 | 40.42743 | 0.82842 | 36132 ft | 458 kts | 46° |
| 2026-04-24 22:38 | 40.47063 | 0.88997 | 36134 ft | 458 kts | 46° |
| 2026-04-24 22:39 | 40.50643 | 0.94107 | 36135 ft | 457 kts | 46° |
| 2026-04-24 22:39 | 40.54946 | 1.00259 | 36136 ft | 457 kts | 46° |
| 2026-04-24 22:40 | 40.59241 | 1.06419 | 36133 ft | 456 kts | 46° |
| 2026-04-24 22:40 | 40.63526 | 1.12581 | 36137 ft | 456 kts | 46° |
| 2026-04-24 22:41 | 40.67782 | 1.18714 | 36140 ft | 456 kts | 46° |
| 2026-04-24 22:41 | 40.72064 | 1.24894 | 36141 ft | 456 kts | 46° |
| 2026-04-24 22:42 | 40.76352 | 1.31087 | 36140 ft | 456 kts | 46° |
| 2026-04-24 22:42 | 40.80640 | 1.37293 | 36141 ft | 456 kts | 46° |
| 2026-04-24 22:43 | 40.84887 | 1.43453 | 36138 ft | 456 kts | 46° |
| 2026-04-24 22:43 | 40.89010 | 1.49838 | 36139 ft | 457 kts | 50° |
| 2026-04-24 22:44 | 40.92924 | 1.56464 | 36139 ft | 457 kts | 51° |
| 2026-04-24 22:44 | 40.96833 | 1.63103 | 36140 ft | 457 kts | 50° |
| 2026-04-24 22:45 | 41.00764 | 1.69715 | 36138 ft | 457 kts | 50° |
| 2026-04-24 22:45 | 41.04699 | 1.76319 | 36142 ft | 457 kts | 50° |
| 2026-04-24 22:46 | 41.08626 | 1.82922 | 36148 ft | 456 kts | 50° |
| 2026-04-24 22:46 | 41.12554 | 1.89545 | 36152 ft | 456 kts | 50° |
| 2026-04-24 22:47 | 41.16472 | 1.96165 | 36155 ft | 456 kts | 50° |
| 2026-04-24 22:47 | 41.20389 | 2.02797 | 36158 ft | 456 kts | 50° |
| 2026-04-24 22:48 | 41.24224 | 2.09439 | 36157 ft | 456 kts | 50° |
| 2026-04-24 22:48 | 41.28054 | 2.16150 | 36159 ft | 456 kts | 50° |
| 2026-04-24 22:49 | 41.31890 | 2.22863 | 36157 ft | 455 kts | 50° |
| 2026-04-24 22:49 | 41.35731 | 2.29582 | 36155 ft | 455 kts | 49° |
| 2026-04-24 22:50 | 41.39787 | 2.36030 | 36156 ft | 453 kts | 46° |
| 2026-04-24 22:50 | 41.43973 | 2.42301 | 36147 ft | 453 kts | 45° |
| 2026-04-24 22:51 | 41.48113 | 2.48548 | 36142 ft | 453 kts | 46° |
| 2026-04-24 22:51 | 41.52256 | 2.54877 | 36132 ft | 452 kts | 46° |
| 2026-04-24 22:52 | 41.56381 | 2.61219 | 36139 ft | 452 kts | 46° |
| 2026-04-24 22:52 | 41.60504 | 2.67572 | 36134 ft | 452 kts | 46° |
| 2026-04-24 22:53 | 41.64617 | 2.73923 | 36126 ft | 452 kts | 46° |
| 2026-04-24 22:53 | 41.68729 | 2.80284 | 36127 ft | 451 kts | 46° |
| 2026-04-24 22:54 | 41.72836 | 2.86649 | 36123 ft | 451 kts | 46° |
| 2026-04-24 22:54 | 41.76912 | 2.92982 | 36126 ft | 451 kts | 46° |
| 2026-04-24 22:55 | 41.81010 | 2.99361 | 36121 ft | 452 kts | 46° |
| 2026-04-24 22:55 | 41.85106 | 3.05751 | 36142 ft | 451 kts | 46° |
| 2026-04-24 22:56 | 41.89193 | 3.12142 | 36124 ft | 451 kts | 46° |
| 2026-04-24 22:56 | 41.93809 | 3.17660 | 36130 ft | 442 kts | 30° |
| 2026-04-24 22:57 | 41.98984 | 3.22108 | 36125 ft | 441 kts | 28° |
| 2026-04-24 22:57 | 42.04091 | 3.26477 | 35748 ft | 431 kts | 29° |
| 2026-04-24 22:58 | 42.06618 | 3.28667 | 35120 ft | 432 kts | 29° |
| 2026-04-24 22:58 | 42.09155 | 3.30877 | 34374 ft | 437 kts | 29° |
| 2026-04-24 22:58 | 42.11715 | 3.33117 | 33542 ft | 441 kts | 29° |
| 2026-04-24 22:58 | 42.14292 | 3.35389 | 32709 ft | 444 kts | 29° |
| 2026-04-24 22:59 | 42.16888 | 3.37676 | 31903 ft | 447 kts | 29° |
| 2026-04-24 22:59 | 42.19497 | 3.39972 | 31126 ft | 449 kts | 29° |
| 2026-04-24 22:59 | 42.24740 | 3.44596 | 29486 ft | 451 kts | 29° |
| 2026-04-24 23:00 | 42.27370 | 3.46921 | 28550 ft | 453 kts | 29° |
| 2026-04-24 23:00 | 42.30013 | 3.49261 | 27556 ft | 455 kts | 30° |
| 2026-04-24 23:00 | 42.32637 | 3.51586 | 26564 ft | 458 kts | 30° |
| 2026-04-24 23:00 | 42.35314 | 3.53961 | 25572 ft | 460 kts | 30° |
| 2026-04-24 23:01 | 42.37984 | 3.56336 | 24826 ft | 458 kts | 30° |
| 2026-04-24 23:01 | 42.40626 | 3.58691 | 24226 ft | 451 kts | 30° |
| 2026-04-24 23:01 | 42.43230 | 3.61012 | 23606 ft | 445 kts | 30° |
| 2026-04-24 23:01 | 42.45805 | 3.63309 | 22829 ft | 441 kts | 30° |
| 2026-04-24 23:02 | 42.48368 | 3.65594 | 22074 ft | 438 kts | 30° |
| 2026-04-24 23:02 | 42.50900 | 3.67854 | 21342 ft | 434 kts | 30° |
| 2026-04-24 23:02 | 42.53416 | 3.70100 | 20635 ft | 431 kts | 31° |
| 2026-04-24 23:02 | 42.55913 | 3.72333 | 19945 ft | 428 kts | 31° |
| 2026-04-24 23:03 | 42.58356 | 3.74519 | 19272 ft | 425 kts | 31° |
| 2026-04-24 23:03 | 42.60815 | 3.76722 | 18627 ft | 422 kts | 31° |
| 2026-04-24 23:03 | 42.63260 | 3.78913 | 17915 ft | 419 kts | 31° |
| 2026-04-24 23:03 | 42.65683 | 3.81089 | 17235 ft | 415 kts | 31° |
| 2026-04-24 23:04 | 42.68075 | 3.83238 | 16610 ft | 410 kts | 31° |
| 2026-04-24 23:04 | 42.70446 | 3.85371 | 15979 ft | 406 kts | 31° |
| 2026-04-24 23:04 | 42.72793 | 3.87484 | 15339 ft | 402 kts | 32° |
| 2026-04-24 23:04 | 42.75120 | 3.89580 | 14718 ft | 399 kts | 32° |
| 2026-04-24 23:05 | 42.77400 | 3.91636 | 14129 ft | 396 kts | 32° |
| 2026-04-24 23:05 | 42.79686 | 3.93700 | 13480 ft | 393 kts | 32° |
| 2026-04-24 23:05 | 42.81956 | 3.95750 | 12838 ft | 389 kts | 32° |
| 2026-04-24 23:05 | 42.84203 | 3.97781 | 12204 ft | 386 kts | 32° |
| 2026-04-24 23:06 | 42.86432 | 3.99799 | 11582 ft | 383 kts | 33° |
| 2026-04-24 23:06 | 42.88647 | 4.01804 | 10981 ft | 381 kts | 33° |
| 2026-04-24 23:06 | 42.90845 | 4.03797 | 10398 ft | 378 kts | 33° |
| 2026-04-24 23:06 | 42.93026 | 4.05776 | 9807 ft | 375 kts | 33° |
| 2026-04-24 23:07 | 42.95196 | 4.07746 | 9338 ft | 374 kts | 34° |
| 2026-04-24 23:07 | 42.97370 | 4.09722 | 9210 ft | 375 kts | 34° |
| 2026-04-24 23:07 | 42.99541 | 4.11698 | 9152 ft | 374 kts | 34° |
| 2026-04-24 23:07 | 43.01706 | 4.13670 | 9141 ft | 374 kts | 34° |
| 2026-04-24 23:08 | 43.03839 | 4.15614 | 9140 ft | 374 kts | 34° |
| 2026-04-24 23:08 | 43.06008 | 4.17593 | 9138 ft | 374 kts | 34° |
| 2026-04-24 23:08 | 43.08170 | 4.19567 | 9139 ft | 374 kts | 34° |
| 2026-04-24 23:08 | 43.10318 | 4.21529 | 9129 ft | 364 kts | 34° |
| 2026-04-24 23:09 | 43.12380 | 4.23414 | 9121 ft | 347 kts | 34° |
| 2026-04-24 23:09 | 43.14338 | 4.25206 | 9117 ft | 330 kts | 34° |
| 2026-04-24 23:09 | 43.16201 | 4.26911 | 9119 ft | 314 kts | 34° |
| 2026-04-24 23:09 | 43.17975 | 4.28538 | 9118 ft | 299 kts | 34° |
| 2026-04-24 23:10 | 43.19667 | 4.30089 | 9117 ft | 288 kts | 34° |
| 2026-04-24 23:10 | 43.21305 | 4.31594 | 9049 ft | 279 kts | 34° |
| 2026-04-24 23:10 | 43.22885 | 4.33046 | 8810 ft | 274 kts | 34° |
| 2026-04-24 23:10 | 43.24536 | 4.34315 | 8369 ft | 275 kts | 15° |
| 2026-04-24 23:11 | 43.26431 | 4.34292 | 7914 ft | 277 kts | 341° |
| 2026-04-24 23:11 | 43.28157 | 4.33150 | 7570 ft | 274 kts | 332° |
| 2026-04-24 23:11 | 43.29835 | 4.31907 | 7208 ft | 274 kts | 331° |
| 2026-04-24 23:11 | 43.31511 | 4.30665 | 6849 ft | 273 kts | 332° |
| 2026-04-24 23:12 | 43.32616 | 4.29852 | 6624 ft | 272 kts | 332° |
| 2026-04-24 23:12 | 43.33996 | 4.28842 | 6328 ft | 272 kts | 332° |
| 2026-04-24 23:12 | 43.35661 | 4.27629 | 5987 ft | 270 kts | 332° |
| 2026-04-24 23:12 | 43.37314 | 4.26428 | 5653 ft | 268 kts | 332° |
| 2026-04-24 23:13 | 43.38959 | 4.25237 | 5313 ft | 266 kts | 332° |
| 2026-04-24 23:13 | 43.40594 | 4.24055 | 4976 ft | 265 kts | 332° |
| 2026-04-24 23:13 | 43.42221 | 4.22877 | 4722 ft | 262 kts | 332° |
| 2026-04-24 23:13 | 43.43799 | 4.21736 | 4645 ft | 249 kts | 332° |
| 2026-04-24 23:14 | 43.45273 | 4.20670 | 4536 ft | 236 kts | 332° |
| 2026-04-24 23:14 | 43.46577 | 4.19408 | 4298 ft | 226 kts | 308° |
| 2026-04-24 23:14 | 43.47473 | 4.17655 | 4002 ft | 219 kts | 304° |
| 2026-04-24 23:14 | 43.48329 | 4.15953 | 4013 ft | 218 kts | 304° |
| 2026-04-24 23:15 | 43.49215 | 4.14201 | 3889 ft | 229 kts | 304° |
| 2026-04-24 23:15 | 43.50136 | 4.12424 | 3390 ft | 223 kts | 306° |
| 2026-04-24 23:15 | 43.51014 | 4.10729 | 2872 ft | 212 kts | 305° |
| 2026-04-24 23:15 | 43.51836 | 4.09090 | 2375 ft | 203 kts | 304° |
| 2026-04-24 23:16 | 43.52624 | 4.07513 | 1872 ft | 197 kts | 304° |
| 2026-04-24 23:16 | 43.53381 | 4.05998 | 1458 ft | 184 kts | 304° |
| 2026-04-24 23:16 | 43.54077 | 4.04609 | 1138 ft | 169 kts | 304° |
| 2026-04-24 23:16 | 43.54715 | 4.03334 | 909 ft | 156 kts | 304° |
| 2026-04-24 23:17 | 43.55326 | 4.02115 | 702 ft | 154 kts | 304° |
| 2026-04-24 23:17 | 43.55922 | 4.00923 | 517 ft | 153 kts | 304° |
| 2026-04-24 23:17 | 43.56527 | 3.99714 | 300 ft | 151 kts | 303° |
| 2026-04-24 23:17 | 43.57116 | 3.98544 | 88 ft | 146 kts | 304° |
| 2026-04-24 23:18 | 43.57683 | 3.97416 | 18 ft | 135 kts | 305° |
| 2026-04-24 23:18 | 43.58149 | 3.96490 | 17 ft | 100 kts | 306° |
| 2026-04-24 23:18 | 43.58314 | 3.96125 | 13 ft | 16 kts | 266° |
| 2026-04-24 23:18 | 43.58270 | 3.95982 | 11 ft | 16 kts | 244° |
| 2026-04-24 23:19 | 43.58221 | 3.95845 | 16 ft | 16 kts | 244° |
| 2026-04-24 23:19 | 43.58143 | 3.95772 | 14 ft | 15 kts | 168° |
| 2026-04-24 23:19 | 43.58077 | 3.95872 | 14 ft | 14 kts | 129° |
| 2026-04-24 23:19 | 43.58035 | 3.95992 | 16 ft | 14 kts | 115° |
| 2026-04-24 23:20 | 43.57983 | 3.96099 | 15 ft | 11 kts | 126° |
| 2026-04-24 23:20 | 43.57976 | 3.96110 | 14 ft | 2 kts | 147° |
| 2026-04-24 23:20 | 43.57949 | 3.96097 | 14 ft | 6 kts | 220° |
| 2026-04-24 23:20 | 43.57933 | 3.96048 | 14 ft | 0 kts | 254° |
| 2026-04-24 23:21 | 43.57930 | 3.96035 | 14 ft | 3 kts | 254° |
| 2026-04-24 23:21 | 43.57930 | 3.96032 | 14 ft | 0 kts | 255° |